Time;durP1;ratioP1;P1;durP2;ratioP2;P2;SDS_P1;SDS_P2;PMS_P1;PMS_P2;Temp;Humidity;BMP_temperature;BMP_pressure;BME280_temperature;BME280_humidity;BME280_pressure;Samples;Min_cycle;Max_cycle;Signal;HPM_P1;HPM_P2
2023/09/17 00:00:36;;;;;;;;;;;;;;;14.94;100.00;101001.91;5048582;28;20190;-88
2023/09/17 00:03:03;;;;;;;9.20;6.53;;;;;;;14.90;100.00;101003.28;5058971;28;19962;-88
2023/09/17 00:05:28;;;;;;;;;;;;;;;14.91;100.00;101012.19;5050380;28;20044;-88
2023/09/17 00:07:54;;;;;;;;;;;;;;;14.87;100.00;100998.28;5023550;28;19909;-89
2023/09/17 00:10:19;;;;;;;9.77;7.03;;;;;;;14.88;100.00;100999.94;5036236;28;20418;-88
2023/09/17 00:12:44;;;;;;;9.03;6.93;;;;;;;14.87;100.00;101010.91;5026238;28;20021;-88
2023/09/17 00:15:10;;;;;;;11.17;8.30;;;;;;;14.84;100.00;101014.78;5035058;28;20033;-88
2023/09/17 00:17:37;;;;;;;10.07;7.20;;;;;;;14.83;100.00;101025.72;5046534;28;20507;-88
2023/09/17 00:20:03;;;;;;;9.63;7.50;;;;;;;14.78;100.00;101021.72;5039509;28;20035;-87
2023/09/17 00:22:29;;;;;;;9.18;6.18;;;;;;;14.72;100.00;101017.06;5041209;28;20024;-88
2023/09/17 00:24:54;;;;;;;10.27;8.20;;;;;;;14.78;100.00;101031.66;5049995;28;20047;-88
2023/09/17 00:27:19;;;;;;;9.53;7.53;;;;;;;14.74;100.00;101033.84;5034569;28;20040;-88
2023/09/17 00:29:45;;;;;;;9.10;6.97;;;;;;;14.68;100.00;101026.53;5058059;28;20037;-88
2023/09/17 00:32:11;;;;;;;11.05;6.40;;;;;;;14.67;100.00;101027.53;5050192;28;20035;-88
2023/09/17 00:34:36;;;;;;;8.88;7.35;;;;;;;14.74;100.00;101036.53;5032908;28;20045;-88
2023/09/17 00:37:02;;;;;;;9.87;6.90;;;;;;;14.64;100.00;101032.47;5038430;28;20129;-87
2023/09/17 00:39:28;;;;;;;11.43;7.68;;;;;;;14.63;100.00;101026.22;5040050;28;20113;-88
2023/09/17 00:41:53;;;;;;;10.93;7.70;;;;;;;14.62;100.00;101027.25;5039569;28;20248;-88
2023/09/17 00:44:19;;;;;;;11.35;7.65;;;;;;;14.61;100.00;101028.28;5039847;28;20044;-88
2023/09/17 00:46:45;;;;;;;8.23;7.03;;;;;;;14.49;100.00;101014.44;5041689;28;20033;-87
2023/09/17 00:49:13;;;;;;;9.53;8.50;;;;;;;14.49;100.00;101013.56;5045153;28;20041;-87
2023/09/17 00:51:42;;;;;;;9.88;6.95;;;;;;;14.51;100.00;101019.59;5057401;28;20263;-88
2023/09/17 00:54:10;;;;;;;15.02;8.68;;;;;;;14.53;100.00;101020.25;5051039;28;20072;-88
2023/09/17 00:56:37;;;;;;;9.07;7.40;;;;;;;14.51;100.00;101033.84;5051381;28;20025;-88
2023/09/17 00:59:05;;;;;;;11.05;7.75;;;;;;;14.46;100.00;101019.31;5059092;28;20086;-88
2023/09/17 01:01:30;;;;;;;9.90;8.90;;;;;;;14.34;100.00;101006.31;5057870;28;20159;-88
2023/09/17 01:03:57;;;;;;;9.35;7.75;;;;;;;14.40;100.00;101020.88;5059882;28;20035;-88
2023/09/17 01:06:23;;;;;;;9.75;6.82;;;;;;;14.36;100.00;101006.13;5041458;28;20116;-90
2023/09/17 01:08:50;;;;;;;10.68;7.78;;;;;;;14.32;100.00;100997.59;5027517;28;20084;-88
2023/09/17 01:11:15;;;;;;;9.30;7.35;;;;;;;14.31;100.00;100995.94;5039626;28;20025;-87
2023/09/17 01:13:42;;;;;;;8.35;7.38;;;;;;;14.28;100.00;100990.06;5033479;28;20076;-88
2023/09/17 01:16:09;;;;;;;8.40;7.07;;;;;;;14.24;100.00;100986.09;5040832;28;20036;-89
2023/09/17 01:18:35;;;;;;;8.98;7.68;;;;;;;14.24;100.00;100984.25;5057914;28;20054;-88
2023/09/17 01:21:26;;;;;;;11.67;8.30;;;;;;;14.27;100.00;101004.53;5028816;28;20016;-88
2023/09/17 01:24:13;;;;;;;9.20;7.43;;;;;;;14.29;100.00;101005.19;5048837;28;20306;-88
2023/09/17 01:26:39;;;;;;;11.55;8.27;;;;;;;14.28;100.00;100995.44;5040849;28;20036;-88
2023/09/17 01:29:05;;;;;;;11.50;9.00;;;;;;;14.24;100.00;101003.06;5039498;28;20066;-87
2023/09/17 01:31:30;;;;;;;12.93;8.80;;;;;;;14.21;100.00;101016.84;5048783;28;20033;-88
2023/09/17 01:33:56;;;;;;;11.40;8.80;;;;;;;14.22;100.00;101025.72;5050948;28;20029;-88
2023/09/17 01:36:35;;;;;;;10.83;8.53;;;;;;;14.24;100.00;101043.31;5037469;28;20051;-88
2023/09/17 01:39:05;;;;;;;10.13;8.73;;;;;;;14.15;100.00;101028.28;5031424;28;20112;-88
2023/09/17 01:41:33;;;;;;;12.75;8.05;;;;;;;14.05;100.00;101022.34;5040581;28;20033;-88
2023/09/17 01:44:00;;;;;;;10.60;8.98;;;;;;;13.99;100.00;101023.03;5055624;28;20404;-88
2023/09/17 01:46:26;;;;;;;13.32;8.07;;;;;;;14.04;100.00;101042.13;5039252;28;20055;-88
2023/09/17 01:48:53;;;;;;;9.27;8.27;;;;;;;14.06;100.00;101040.09;5032955;28;20033;-88
2023/09/17 01:51:18;;;;;;;9.75;7.53;;;;;;;14.07;100.00;101047.13;5031249;28;20032;-88
2023/09/17 01:53:44;;;;;;;9.88;7.60;;;;;;;14.06;100.00;101040.09;5036844;28;20017;-88
2023/09/17 01:56:11;;;;;;;13.80;9.00;;;;;;;14.19;100.00;101053.78;5055242;28;20033;-88
2023/09/17 01:58:37;;;;;;;9.65;8.65;;;;;;;14.24;100.00;101056.75;5039269;28;20075;-87
2023/09/17 02:01:03;;;;;;;13.67;10.27;;;;;;;14.31;100.00;101063.06;5039749;28;20037;-88
2023/09/17 02:03:28;;;;;;;13.60;10.95;;;;;;;14.39;100.00;101082.84;5048924;28;20037;-87
2023/09/17 02:05:54;;;;;;;12.38;9.82;;;;;;;14.41;100.00;101080.81;5045946;28;20033;-88
2023/09/17 02:08:19;;;;;;;13.60;10.50;;;;;;;14.35;100.00;101080.50;5054540;28;20082;-87
2023/09/17 02:10:45;;;;;;;9.38;7.97;;;;;;;14.31;100.00;101076.50;5052172;28;20040;-88
2023/09/17 02:13:11;;;;;;;17.63;11.33;;;;;;;14.31;100.00;101070.31;5054043;28;20033;-87
2023/09/17 02:15:36;;;;;;;11.53;9.27;;;;;;;14.31;100.00;101067.63;5053690;28;20143;-88
2023/09/17 02:18:03;;;;;;;11.32;8.73;;;;;;;14.24;100.00;101053.25;5053319;28;20097;-88
2023/09/17 02:20:28;;;;;;;9.32;8.10;;;;;;;14.22;100.00;101058.78;5035899;28;20127;-87
2023/09/17 02:22:54;;;;;;;10.97;8.40;;;;;;;14.22;100.00;101044.53;5044775;28;20028;-87
2023/09/17 02:25:19;;;;;;;11.97;9.67;;;;;;;14.22;100.00;101050.72;5045103;28;20052;-88
2023/09/17 02:27:46;;;;;;;14.27;8.47;;;;;;;14.23;100.00;101046.19;5029726;28;20025;-88
2023/09/17 02:30:12;;;;;;;13.52;8.45;;;;;;;14.11;100.00;101032.34;5056696;28;20041;-88
2023/09/17 02:32:37;;;;;;;14.82;9.50;;;;;;;14.17;100.00;101039.69;5035863;28;20070;-87
2023/09/17 02:35:07;;;;;;;;;;;;;;;14.18;100.00;101043.19;5029460;28;20060;-87
2023/09/17 02:37:32;;;;;;;10.75;7.80;;;;;;;14.10;100.00;101031.50;5052146;28;20418;-88
2023/09/17 02:39:58;;;;;;;12.70;8.57;;;;;;;14.08;100.00;101032.72;5028767;28;20028;-87
2023/09/17 02:42:24;;;;;;;10.93;8.63;;;;;;;14.06;100.00;101034.72;5039748;28;20033;-87
2023/09/17 02:44:50;;;;;;;;;;;;;;;14.06;100.00;101032.03;5029794;28;20539;-88
2023/09/17 02:47:15;;;;;;;15.25;10.18;;;;;;;14.09;100.00;101037.03;5054919;28;19912;-87
2023/09/17 02:49:40;;;;;;;10.50;9.43;;;;;;;14.10;100.00;101054.84;5038071;28;20713;-87
2023/09/17 02:52:06;;;;;;;9.87;8.27;;;;;;;13.98;100.00;101037.44;5047766;28;20551;-87
2023/09/17 02:54:35;;;;;;;12.18;8.40;;;;;;;13.89;100.00;101029.47;5038431;28;20025;-88
2023/09/17 02:57:00;;;;;;;11.60;9.43;;;;;;;13.87;100.00;101023.44;5039056;28;20111;-87
2023/09/17 02:59:26;;;;;;;12.33;8.70;;;;;;;13.87;100.00;101025.28;5040617;28;20073;-88
2023/09/17 03:01:51;;;;;;;11.57;8.80;;;;;;;13.91;100.00;101034.66;5049443;28;20037;-88
2023/09/17 03:04:17;;;;;;;10.77;8.98;;;;;;;13.84;100.00;101026.47;5055001;28;20005;-89
2023/09/17 03:06:43;;;;;;;8.70;7.77;;;;;;;13.81;100.00;101024.13;5072717;28;20082;-88
2023/09/17 03:09:11;;;;;;;10.70;9.47;;;;;;;13.77;100.00;101012.09;5076732;28;20013;-89
2023/09/17 03:11:37;;;;;;;13.65;9.75;;;;;;;13.81;100.00;101024.13;5062017;28;20187;-88
2023/09/17 03:14:03;;;;;;;13.23;10.82;;;;;;;14.03;100.00;101046.66;5034188;28;20072;-87
2023/09/17 03:16:33;;;;;;;14.65;9.50;;;;;;;13.97;100.00;101041.16;5030028;28;20025;-88
2023/09/17 03:18:58;;;;;;;11.35;9.68;;;;;;;13.94;100.00;101032.44;5033270;28;20029;-88
2023/09/17 03:21:23;;;;;;;11.70;9.23;;;;;;;13.85;100.00;101025.47;5042161;28;20112;-88
2023/09/17 03:23:50;;;;;;;11.45;8.60;;;;;;;13.72;100.00;101026.06;5056846;28;20069;-88
2023/09/17 03:26:15;;;;;;;11.20;9.53;;;;;;;13.72;100.00;101027.91;5032101;28;20506;-88
2023/09/17 03:28:41;;;;;;;13.50;9.37;;;;;;;13.72;100.00;101038.63;5036093;28;20072;-87
2023/09/17 03:31:07;;;;;;;10.80;8.88;;;;;;;13.72;100.00;101038.63;5037242;28;20043;-87
2023/09/17 03:33:33;;;;;;;11.98;9.40;;;;;;;13.70;100.00;101038.81;5031260;28;20108;-87
2023/09/17 03:35:59;;;;;;;16.23;11.77;;;;;;;13.79;100.00;101047.66;5038003;28;20482;-87
2023/09/17 03:38:24;;;;;;;15.93;10.77;;;;;;;13.81;100.00;101048.28;5046444;28;20047;-88
2023/09/17 03:40:50;;;;;;;20.13;14.77;;;;;;;13.87;100.00;101060.19;5053342;28;20037;-88
2023/09/17 03:43:16;;;;;;;13.05;10.07;;;;;;;13.78;100.00;101054.00;5048829;28;20028;-87
2023/09/17 03:45:41;;;;;;;15.30;11.50;;;;;;;13.81;100.00;101058.19;5054153;28;20040;-87
2023/09/17 03:48:07;;;;;;;14.83;10.93;;;;;;;13.80;100.00;101057.38;5053509;28;20025;-87
2023/09/17 03:50:32;;;;;;;14.65;11.38;;;;;;;13.77;100.00;101052.34;5033961;28;20292;-87
2023/09/17 03:53:05;;;;;;;15.40;12.27;;;;;;;13.73;100.00;101045.66;5037725;28;20041;-87
2023/09/17 03:55:31;;;;;;;13.60;11.55;;;;;;;13.77;100.00;101047.00;5049156;28;20028;-88
2023/09/17 03:57:57;;;;;;;12.50;10.00;;;;;;;13.70;100.00;101030.75;5047184;28;20059;-87
2023/09/17 04:00:24;;;;;;;14.52;10.82;;;;;;;13.78;100.00;101031.72;5051795;28;20033;-88
2023/09/17 04:02:52;;;;;;;20.83;15.13;;;;;;;13.94;100.00;101048.56;5043261;28;20031;-87
2023/09/17 04:05:18;;;;;;;15.80;12.70;;;;;;;14.01;100.00;101059.41;5042670;28;20040;-88
2023/09/17 04:07:45;;;;;;;17.98;13.75;;;;;;;14.00;100.00;101057.75;5036303;28;20029;-87
2023/09/17 04:10:12;;;;;;;14.98;11.02;;;;;;;13.84;100.00;101037.22;5034400;28;20075;-88
2023/09/17 04:12:39;;;;;;;18.48;14.52;;;;;;;13.93;100.00;101044.22;5052526;28;20036;-88
2023/09/17 04:15:10;;;;;;;17.45;13.93;;;;;;;13.93;100.00;101054.94;5048673;28;20040;-88
2023/09/17 04:17:36;;;;;;;15.85;12.23;;;;;;;13.83;100.00;101040.91;5025732;28;20045;-87
2023/09/17 04:20:02;;;;;;;18.67;12.98;;;;;;;13.78;100.00;101032.53;5035844;28;20017;-87
2023/09/17 04:22:28;;;;;;;21.20;15.25;;;;;;;13.77;100.00;101035.44;5048281;28;20029;-88
2023/09/17 04:24:53;;;;;;;18.30;11.70;;;;;;;13.67;100.00;101023.06;5051690;28;20029;-88
2023/09/17 04:27:18;;;;;;;16.10;11.47;;;;;;;13.60;100.00;101016.75;5044365;28;20048;-87
2023/09/17 04:29:44;;;;;;;14.35;12.00;;;;;;;13.53;100.00;101013.06;5049342;28;20033;-87
2023/09/17 04:32:10;;;;;;;16.47;13.13;;;;;;;13.56;100.00;101019.94;5047937;28;20064;-87
2023/09/17 04:34:35;;;;;;;17.77;11.63;;;;;;;13.58;100.00;101020.56;5047986;28;20079;-88
2023/09/17 04:37:00;;;;;;;17.37;12.83;;;;;;;13.58;100.00;101029.47;5061440;28;20094;-87
2023/09/17 04:39:27;;;;;;;18.07;14.27;;;;;;;13.66;100.00;101037.47;5044212;28;20522;-87
2023/09/17 04:41:53;;;;;;;18.50;13.13;;;;;;;13.62;100.00;101032.63;5018261;28;20025;-87
2023/09/17 04:44:18;;;;;;;22.33;15.48;;;;;;;13.70;100.00;101046.03;5051776;28;20025;-87
2023/09/17 04:46:44;;;;;;;19.53;13.83;;;;;;;13.72;100.00;101049.38;5030689;28;20041;-87
2023/09/17 04:49:10;;;;;;;19.35;13.05;;;;;;;13.68;100.00;101061.47;5039270;28;20049;-87
2023/09/17 04:51:36;;;;;;;16.02;13.50;;;;;;;13.60;100.00;101046.25;5024433;28;20034;-87
2023/09/17 04:54:03;;;;;;;19.77;14.38;;;;;;;13.79;100.00;101055.72;5032309;28;20682;-87
2023/09/17 04:56:30;;;;;;;19.13;14.60;;;;;;;13.87;100.00;101070.91;5026814;28;20558;-88
2023/09/17 04:58:58;;;;;;;26.00;15.82;;;;;;;13.81;100.00;101064.38;5018067;28;20407;-87
2023/09/17 05:01:23;;;;;;;19.15;14.85;;;;;;;13.78;100.00;101075.47;5017035;28;20037;-88
2023/09/17 05:03:49;;;;;;;18.63;12.53;;;;;;;13.82;100.00;101066.06;5020876;28;20021;-87
2023/09/17 05:06:16;;;;;;;17.95;13.60;;;;;;;13.82;100.00;101058.03;5039826;28;20130;-87
2023/09/17 05:08:41;;;;;;;16.77;12.97;;;;;;;13.85;100.00;101054.97;5045110;28;20276;-87
2023/09/17 05:11:07;;;;;;;25.90;19.23;;;;;;;13.87;100.00;101052.97;5048924;28;20033;-87
2023/09/17 05:13:32;;;;;;;20.90;15.80;;;;;;;13.86;100.00;101051.31;5049340;28;20398;-87
2023/09/17 05:15:57;;;;;;;24.73;18.47;;;;;;;13.78;100.00;101035.22;5034238;28;20064;-87
2023/09/17 05:18:23;;;;;;;22.40;15.53;;;;;;;13.71;100.00;101042.31;5033176;28;20115;-87
2023/09/17 05:20:49;;;;;;;18.52;14.73;;;;;;;13.78;100.00;101053.19;5031938;28;20029;-87
2023/09/17 05:23:16;;;;;;;21.73;15.65;;;;;;;13.79;100.00;101055.72;5044764;28;20076;-87
2023/09/17 05:25:42;;;;;;;17.40;13.25;;;;;;;13.86;100.00;101058.50;5040964;28;20045;-87
2023/09/17 05:28:09;;;;;;;18.38;13.23;;;;;;;13.85;100.00;101054.97;5051310;28;20027;-88
2023/09/17 05:30:36;;;;;;;17.27;14.10;;;;;;;13.90;100.00;101052.59;5051482;28;20039;-87
2023/09/17 05:33:04;;;;;;;17.90;13.10;;;;;;;13.95;100.00;101049.38;5027015;28;20141;-87
2023/09/17 05:35:34;;;;;;;23.15;15.43;;;;;;;14.05;100.00;101059.91;5034698;28;20029;-87
2023/09/17 05:38:00;;;;;;;21.13;15.57;;;;;;;14.15;100.00;101068.56;5011572;28;20041;-87
2023/09/17 05:40:26;;;;;;;30.75;21.55;;;;;;;14.32;100.00;101078.16;5034941;28;20531;-87
2023/09/17 05:42:51;;;;;;;32.42;20.33;;;;;;;14.45;100.00;101077.59;5026557;28;20045;-86
2023/09/17 05:45:20;;;;;;;24.53;17.57;;;;;;;14.57;100.00;101072.66;5045014;28;20108;-86
2023/09/17 05:47:46;;;;;;;18.73;13.75;;;;;;;14.64;100.00;101083.50;5046642;28;20025;-87
2023/09/17 05:50:11;;;;;;;18.70;14.25;;;;;;;14.66;100.00;101086.84;5040081;28;20167;-87
2023/09/17 05:52:37;;;;;;;17.10;13.70;;;;;;;14.73;100.00;101085.94;5038781;28;20014;-87
2023/09/17 05:55:04;;;;;;;19.83;12.40;;;;;;;14.85;100.00;101085.50;5044022;28;20041;-88
2023/09/17 05:57:31;;;;;;;17.10;12.68;;;;;;;15.01;100.00;101088.03;5034529;28;20025;-87
2023/09/17 05:59:58;;;;;;;32.35;11.43;;;;;;;15.66;100.00;101145.66;5028556;28;20286;-88
2023/09/17 06:02:24;;;;;;;14.80;9.35;;;;;;;16.69;100.00;101141.06;5051664;28;20021;-88
2023/09/17 06:04:53;;;;;;;19.67;14.32;;;;;;;17.43;100.00;101072.34;5037634;28;20440;-88
2023/09/17 06:07:22;;;;;;;14.45;11.40;;;;;;;18.18;100.00;101059.75;5036061;28;20199;-88
2023/09/17 06:09:48;;;;;;;13.85;10.60;;;;;;;18.89;100.00;101018.63;5050084;28;20076;-87
2023/09/17 06:12:15;;;;;;;15.32;10.38;;;;;;;19.37;100.00;100944.38;5050271;28;20025;-87
2023/09/17 06:14:41;;;;;;;13.15;11.68;;;;;;;19.71;100.00;100813.13;5046354;28;20061;-88
2023/09/17 06:17:06;;;;;;;16.17;10.63;;;;;;;19.91;100.00;100712.72;5038533;28;20045;-89
2023/09/17 06:19:33;;;;;;;14.87;10.90;;;;;;;20.07;100.00;100537.06;5047991;28;20072;-88
2023/09/17 06:21:59;;;;;;;14.90;10.60;;;;;;;20.01;100.00;100396.00;5035690;28;20048;-88
2023/09/17 06:24:25;;;;;;;15.60;11.25;;;;;;;19.93;100.00;100407.19;5053707;28;20053;-88
2023/09/17 06:26:50;;;;;;;15.68;10.52;;;;;;;19.45;100.00;100410.75;5053553;28;20021;-88
2023/09/17 06:29:17;;;;;;;12.00;10.13;;;;;;;20.12;100.00;100508.19;5036872;28;20690;-88
2023/09/17 06:31:43;;;;;;;16.98;10.57;;;;;;;20.01;100.00;100443.94;5052349;28;20021;-89
2023/09/17 06:34:09;;;;;;;11.43;8.90;;;;;;;19.97;100.00;100446.31;5022955;28;20097;-88
2023/09/17 06:36:38;;;;;;;12.32;9.00;;;;;;;19.67;100.00;100421.94;5032279;28;20471;-88
2023/09/17 06:39:05;;;;;;;13.93;10.52;;;;;;;19.49;100.00;100468.81;5031641;28;20040;-88
2023/09/17 06:41:31;;;;;;;11.10;8.90;;;;;;;19.54;100.00;100487.09;5026020;28;20022;-89
2023/09/17 06:43:57;;;;;;;9.60;7.82;;;;;;;19.70;100.00;100456.69;5023590;28;20113;-87
2023/09/17 06:46:24;;;;;;;11.17;9.13;;;;;;;19.45;100.00;100429.72;5055741;28;20063;-88
2023/09/17 06:48:52;;;;;;;11.00;9.13;;;;;;;19.23;100.00;100471.88;5028844;28;20121;-89
2023/09/17 06:51:18;;;;;;;14.13;10.63;;;;;;;19.34;100.00;100517.13;5049067;28;20095;-91
2023/09/17 06:53:44;;;;;;;11.52;9.25;;;;;;;19.47;100.00;100625.25;5049695;28;20479;-90
2023/09/17 06:56:12;;;;;;;10.07;9.00;;;;;;;19.82;100.00;100646.34;5051870;28;20171;-88
2023/09/17 06:58:37;;;;;;;11.52;9.30;;;;;;;20.27;100.00;100498.78;5040381;28;20539;-91
2023/09/17 07:01:03;;;;;;;9.07;7.63;;;;;;;20.72;100.00;100433.19;5036121;28;20021;-90
2023/09/17 07:03:28;;;;;;;9.70;8.68;;;;;;;21.08;100.00;100394.91;5046650;28;20426;-89
2023/09/17 07:05:54;;;;;;;12.27;9.18;;;;;;;21.24;100.00;100362.66;5054691;28;20115;-89
2023/09/17 07:08:19;;;;;;;10.03;8.00;;;;;;;21.13;100.00;100367.03;5070121;28;20029;-89
2023/09/17 07:10:45;;;;;;;11.77;7.80;;;;;;;21.35;100.00;100344.63;5032869;28;20029;-88
2023/09/17 07:13:11;;;;;;;10.07;8.90;;;;;;;21.16;100.00;100197.44;5034957;28;20083;-88
2023/09/17 07:15:36;;;;;;;;;;;;;;;21.35;100.00;100306.63;5033111;28;20106;-88
2023/09/17 07:18:03;;;;;;;11.30;8.98;;;;;;;21.21;100.00;100281.66;5055553;28;19965;-91
2023/09/17 07:20:28;;;;;;;12.70;7.75;;;;;;;21.54;100.00;100372.44;5028724;28;20036;-88
2023/09/17 07:22:54;;;;;;;10.87;7.60;;;;;;;21.17;100.00;100342.97;5034566;28;20037;-88
2023/09/17 07:25:20;;;;;;;11.90;8.63;;;;;;;21.67;100.00;100364.00;5054435;28;20037;-89
2023/09/17 07:27:45;;;;;;;10.07;8.27;;;;;;;21.79;100.00;100269.63;5036052;28;20438;-88
2023/09/17 07:30:11;;;;;;;10.23;8.20;;;;;;;21.91;100.00;100251.38;5020791;28;20479;-88
2023/09/17 07:32:37;;;;;;;12.13;8.93;;;;;;;21.71;100.00;100173.09;5034335;28;20051;-89
2023/09/17 07:35:03;;;;;;;8.88;7.57;;;;;;;22.00;100.00;100259.06;5034540;28;20029;-90
2023/09/17 07:37:28;;;;;;;11.00;8.07;;;;;;;;;;5033939;28;20036;-90
2023/09/17 07:39:58;;;;;;;9.57;8.53;;;;;;;21.12;100.00;99936.59;5029944;28;20035;-88
2023/09/17 07:42:23;;;;;;;10.45;7.40;;;;;;;21.62;100.00;100174.59;5037373;28;20287;-89
2023/09/17 07:44:49;;;;;;;8.07;7.28;;;;;;;21.47;100.00;100128.22;5028936;28;20116;-89
2023/09/17 07:47:14;;;;;;;10.02;7.50;;;;;;;21.56;100.00;100202.72;5029605;28;20095;-88
2023/09/17 07:49:40;;;;;;;8.53;6.63;;;;;;;21.61;100.00;100210.97;5033217;28;20021;-87
2023/09/17 07:52:06;;;;;;;11.70;7.57;;;;;;;21.15;100.00;99954.25;5044319;28;20037;-88
2023/09/17 07:54:37;;;;;;;8.18;6.97;;;;;;;21.64;100.00;100158.84;5033921;28;20112;-92
2023/09/17 07:57:04;;;;;;;8.75;7.43;;;;;;;21.75;100.00;100021.28;5037965;28;20037;-92
2023/09/17 07:59:29;;;;;;;9.05;6.90;;;;;;;22.28;100.00;100114.84;5034777;28;20025;-91
2023/09/17 08:01:55;;;;;;;6.15;5.10;;;;;;;22.97;100.00;100102.44;5052763;28;20043;-89
2023/09/17 08:04:24;;;;;;;7.68;6.88;;;;;;;22.79;100.00;99953.16;5037850;28;20036;-89
2023/09/17 08:06:49;;;;;;;7.30;6.32;;;;;;;22.68;100.00;99827.94;5015564;28;20503;-90
2023/09/17 08:09:15;;;;;;;9.20;6.95;;;;;;;22.33;100.00;99856.56;5025148;28;20025;-90
2023/09/17 08:11:42;;;;;;;8.95;6.40;;;;;;;23.43;100.00;100042.03;5051683;28;20127;-89
2023/09/17 08:14:08;;;;;;;7.43;6.22;;;;;;;23.98;100.00;99801.56;5033074;28;20032;-89
2023/09/17 08:16:34;;;;;;;9.70;5.93;;;;;;;23.80;100.00;99562.31;5044292;28;20041;-90
2023/09/17 08:18:59;;;;;;;8.93;6.68;;;;;;;24.11;100.00;99601.13;5029414;28;20029;-90
2023/09/17 08:21:24;;;;;;;6.63;5.53;;;;;;;24.37;100.00;99670.03;5037042;28;20051;-89
2023/09/17 08:23:50;;;;;;;8.18;5.85;;;;;;;24.83;97.01;99549.69;5033664;28;20048;-90
2023/09/17 08:26:16;;;;;;;10.25;5.57;;;;;;;25.57;93.50;99492.16;5048126;28;20041;-89
2023/09/17 08:28:42;;;;;;;;;;;;;;;25.86;92.26;99521.28;5034540;28;20841;-90
2023/09/17 08:31:07;;;;;;;5.63;5.03;;;;;;;25.35;90.70;99404.44;5050271;28;19927;-90
2023/09/17 08:33:33;;;;;;;6.00;5.00;;;;;;;25.89;88.26;99353.97;5051566;28;20028;-86
2023/09/17 08:35:59;;;;;;;7.90;4.55;;;;;;;26.69;87.00;99492.47;5050480;28;20068;-88
2023/09/17 08:38:24;;;;;;;6.18;5.35;;;;;;;26.71;85.15;99383.50;5046715;28;20033;-89
2023/09/17 08:40:51;;;;;;;5.30;4.60;;;;;;;26.98;84.35;99441.31;5049051;28;20037;-87
2023/09/17 08:43:17;;;;;;;6.30;4.35;;;;;;;26.81;80.12;99059.44;5031363;28;20857;-88
2023/09/17 08:45:43;;;;;;;4.78;4.10;;;;;;;26.78;79.31;99081.13;5050047;28;20051;-88
2023/09/17 08:48:08;;;;;;;7.88;5.30;;;;;;;25.11;77.68;98556.13;5033011;28;20032;-88
2023/09/17 08:50:35;;;;;;;5.75;4.50;;;;;;;25.04;80.56;99019.84;5047653;28;20037;-89
2023/09/17 08:53:05;;;;;;;5.20;4.63;;;;;;;25.33;81.26;99177.22;5033307;28;20025;-90
2023/09/17 08:55:33;;;;;;;5.15;4.28;;;;;;;25.01;82.48;99241.59;5049694;28;20037;-90
2023/09/17 08:58:11;;;;;;;5.10;4.68;;;;;;;25.12;82.19;99248.50;5030665;28;20028;-90
2023/09/17 09:00:39;;;;;;;6.28;4.82;;;;;;;26.11;81.49;99474.47;5024728;28;20044;-89
2023/09/17 09:03:07;;;;;;;4.95;4.30;;;;;;;26.41;82.07;99570.88;5046489;28;20115;-90
2023/09/17 09:05:35;;;;;;;5.32;4.50;;;;;;;26.46;79.67;99316.31;5047380;28;20514;-90
2023/09/17 09:08:01;;;;;;;6.32;4.10;;;;;;;26.82;79.80;99468.16;5028812;28;20112;-86
2023/09/17 09:10:26;;;;;;;;;;;;;;;26.66;77.37;99210.31;5032922;28;20036;-87
2023/09/17 09:12:52;;;;;;;6.03;5.45;;;;;;;26.91;74.97;99014.56;5048814;28;19966;-88
2023/09/17 09:15:18;;;;;;;7.18;6.50;;;;;;;25.54;75.70;98820.59;5033213;28;20041;-90
2023/09/17 09:17:43;;;;;;;8.00;6.93;;;;;;;26.10;76.35;99100.09;5016544;28;20032;-87
2023/09/17 09:20:10;;;;;;;5.85;5.25;;;;;;;25.25;74.87;98677.03;5022788;28;20036;-88
2023/09/17 09:22:37;;;;;;;5.53;4.97;;;;;;;24.69;76.61;98792.88;5032526;28;20057;-88
2023/09/17 09:25:05;;;;;;;7.10;4.82;;;;;;;25.30;78.25;99224.25;5020082;28;20127;-89
2023/09/17 09:27:30;;;;;;;5.03;4.53;;;;;;;24.98;79.29;99243.00;5040724;28;20434;-89
2023/09/17 09:29:55;;;;;;;5.40;4.63;;;;;;;25.97;79.94;99565.75;5040458;28;20044;-88
2023/09/17 09:32:21;;;;;;;10.60;9.13;;;;;;;26.90;77.45;99478.41;5044159;28;20785;-88
2023/09/17 09:34:48;;;;;;;30.15;27.50;;;;;;;27.09;75.03;99264.69;5037566;28;20244;-88
2023/09/17 09:37:13;;;;;;;22.83;21.02;;;;;;;27.39;72.44;99136.34;5030626;28;20032;-86
2023/09/17 09:39:42;;;;;;;5.63;4.22;;;;;;;27.11;69.54;98681.81;5027309;28;20038;-85
2023/09/17 09:42:09;;;;;;;6.10;4.40;;;;;;;26.21;69.43;98460.78;5040184;28;20040;-88
2023/09/17 09:44:36;;;;;;;5.95;5.25;;;;;;;27.11;68.99;98723.72;5016859;28;20056;-88
2023/09/17 09:47:04;;;;;;;6.18;4.32;;;;;;;26.76;68.68;98618.03;5024991;28;20132;-87
2023/09/17 09:49:45;;;;;;;6.40;4.07;;;;;;;27.26;69.93;98941.63;5025350;28;20088;-87
2023/09/17 09:52:12;;;;;;;7.45;4.97;;;;;;;27.77;67.19;98750.16;5036840;28;20037;-87
2023/09/17 09:54:40;;;;;;;7.60;5.63;;;;;;;26.01;67.02;98258.00;5024054;28;20104;-89
2023/09/17 09:57:05;;;;;;;8.15;5.00;;;;;;;26.47;68.21;98669.47;5041631;28;20056;-89
2023/09/17 09:59:33;;;;;;;5.27;4.13;;;;;;;25.76;67.08;98204.94;5017162;28;20025;-90
2023/09/17 10:02:01;;;;;;;4.55;4.00;;;;;;;25.23;67.46;98105.09;5018316;28;20798;-90
2023/09/17 10:04:26;;;;;;;6.07;4.90;;;;;;;25.68;69.54;98660.16;5028143;28;20028;-89
2023/09/17 10:06:52;;;;;;;6.68;4.93;;;;;;;25.60;68.51;98535.22;5043915;28;20048;-88
2023/09/17 10:09:18;;;;;;;4.70;3.90;;;;;;;26.25;69.28;98850.91;5033430;28;20034;-88
2023/09/17 10:11:43;;;;;;;8.77;4.32;;;;;;;26.53;69.11;98936.38;5016896;28;20030;-88
2023/09/17 10:14:09;;;;;;;7.38;4.05;;;;;;;26.27;67.66;98542.34;5015944;28;20064;-88
2023/09/17 10:16:36;;;;;;;4.60;4.05;;;;;;;26.34;69.46;98883.78;5017193;28;20025;-88
2023/09/17 10:19:04;;;;;;;6.00;3.50;;;;;;;26.68;68.54;98830.38;5024609;28;20021;-89
2023/09/17 10:21:37;;;;;;;6.03;4.47;;;;;;;27.48;68.68;99164.59;5033081;28;20041;-88
2023/09/17 10:24:03;;;;;;;4.47;4.03;;;;;;;28.16;65.25;98869.81;5014551;28;20030;-88
2023/09/17 10:26:32;;;;;;;;;;;;;;;28.79;64.08;98927.81;5016903;28;20017;-88
2023/09/17 10:29:00;;;;;;;7.88;4.32;;;;;;;28.01;61.84;98299.91;5023810;28;20378;-89
2023/09/17 10:31:27;;;;;;;6.20;4.15;;;;;;;27.47;61.63;98187.53;5037690;28;20079;-88
2023/09/17 10:33:53;;;;;;;4.25;3.58;;;;;;;27.03;61.87;98107.66;5051288;28;20127;-87
2023/09/17 10:36:18;;;;;;;5.95;3.95;;;;;;;26.79;63.41;98302.66;5032195;28;20053;-88
2023/09/17 10:38:46;;;;;;;4.80;3.33;;;;;;;27.20;63.13;98495.59;5015193;28;20124;-88
2023/09/17 10:41:13;;;;;;;6.93;3.63;;;;;;;27.12;63.04;98390.41;5023515;28;20021;-87
2023/09/17 10:43:39;;;;;;;6.22;3.97;;;;;;;27.42;63.94;98667.16;5039483;28;20483;-87
2023/09/17 10:46:06;;;;;;;7.22;4.05;;;;;;;27.03;63.34;98441.69;5033693;28;20562;-87
2023/09/17 10:48:33;;;;;;;6.72;4.53;;;;;;;26.56;63.58;98285.69;5011985;28;20144;-87
2023/09/17 10:51:03;;;;;;;4.25;3.85;;;;;;;24.95;66.08;98165.44;5038120;28;20016;-88
2023/09/17 10:53:28;;;;;;;5.72;4.03;;;;;;;25.41;69.01;98775.00;5023626;28;20026;-88
2023/09/17 10:56:10;;;;;;;7.10;4.55;;;;;;;25.32;68.17;98537.34;5032403;28;20025;-87
2023/09/17 10:58:48;;;;;;;4.47;3.85;;;;;;;26.03;69.99;99061.44;5013042;28;20041;-90
2023/09/17 11:01:17;;;;;;;6.65;4.65;;;;;;;25.64;68.98;98793.03;5018291;28;20483;-89
2023/09/17 11:03:47;;;;;;;5.18;4.28;;;;;;;25.49;68.68;98692.31;5010875;28;20034;-90
2023/09/17 11:06:23;;;;;;;5.28;4.78;;;;;;;25.36;69.39;98758.75;5036602;28;20028;-90
2023/09/17 11:08:51;;;;;;;5.80;4.30;;;;;;;24.54;70.62;98651.34;5022418;28;20091;-89
2023/09/17 11:11:18;;;;;;;5.80;4.18;;;;;;;24.62;72.83;98989.72;5027787;28;20092;-89
2023/09/17 11:13:46;;;;;;;6.78;4.07;;;;;;;24.53;73.18;98982.50;5038840;28;20025;-88